createdAt,value
2023-03-27T00:00:59.704Z,10.40
2023-03-27T00:02:01.753Z,10.48
2023-03-27T00:03:03.497Z,10.49
2023-03-27T00:04:05.598Z,10.56
2023-03-27T00:05:08.076Z,10.61
2023-03-27T00:06:17.042Z,10.71
2023-03-27T00:07:20.027Z,10.77
2023-03-27T00:08:21.566Z,10.81
2023-03-27T00:09:23.135Z,10.83
2023-03-27T00:10:24.853Z,10.87
2023-03-27T00:11:26.660Z,10.93
2023-03-27T00:12:28.261Z,11.00
2023-03-27T00:13:30.580Z,11.07
2023-03-27T00:14:32.365Z,11.02
2023-03-27T00:15:36.619Z,10.93
2023-03-27T00:16:38.209Z,10.77
2023-03-27T00:17:39.846Z,10.62
2023-03-27T00:18:41.586Z,10.59
2023-03-27T00:19:43.901Z,10.51
2023-03-27T00:20:45.617Z,10.35
2023-03-27T00:21:47.866Z,10.31
2023-03-27T00:22:55.452Z,10.25
2023-03-27T00:23:57.119Z,10.21
2023-03-27T00:24:58.663Z,10.17
2023-03-27T00:26:00.478Z,10.21
2023-03-27T00:27:02.563Z,10.14
2023-03-27T00:28:04.324Z,10.19
2023-03-27T00:29:06.956Z,10.25
2023-03-27T00:30:09.166Z,10.29
2023-03-27T00:31:15.644Z,10.34
2023-03-27T00:32:17.153Z,10.39
2023-03-27T00:33:19.096Z,10.46
2023-03-27T00:34:20.816Z,10.45
2023-03-27T00:35:23.908Z,10.48
2023-03-27T00:36:26.018Z,10.59
2023-03-27T00:37:27.546Z,10.62
2023-03-27T00:38:29.675Z,10.69
2023-03-27T00:39:31.276Z,10.78
2023-03-27T00:40:32.910Z,10.82
2023-03-27T00:41:34.526Z,10.85
2023-03-27T00:42:36.250Z,10.89
2023-03-27T00:43:43.577Z,10.91
2023-03-27T00:44:45.203Z,10.95
2023-03-27T00:45:48.144Z,11.00
2023-03-27T00:46:49.962Z,11.05
2023-03-27T00:47:56.677Z,11.16
2023-03-27T00:49:01.974Z,11.21
2023-03-27T00:50:10.504Z,11.19
2023-03-27T00:51:12.482Z,11.19
2023-03-27T00:52:16.810Z,11.26
2023-03-27T00:53:23.092Z,11.28
2023-03-27T00:54:29.983Z,11.35
2023-03-27T00:55:34.201Z,11.37
2023-03-27T00:56:38.706Z,11.36
2023-03-27T00:57:43.342Z,11.31
2023-03-27T00:58:49.556Z,11.33
2023-03-27T00:59:54.327Z,11.34
2023-03-27T01:00:57.317Z,11.36
2023-03-27T01:02:00.386Z,11.36
2023-03-27T01:03:05.804Z,11.29
2023-03-27T01:04:09.145Z,11.16
2023-03-27T01:05:11.530Z,11.21
2023-03-27T01:06:16.861Z,11.28
2023-03-27T01:07:19.835Z,11.32
2023-03-27T01:08:22.301Z,11.36
2023-03-27T01:09:27.232Z,11.28
2023-03-27T01:10:40.749Z,11.31
2023-03-27T01:12:07.783Z,11.33
2023-03-27T01:13:12.353Z,11.36
2023-03-27T01:14:35.689Z,11.38
2023-03-27T01:15:50.294Z,11.35
2023-03-27T01:16:57.735Z,11.39
2023-03-27T01:18:38.288Z,11.50
2023-03-27T01:19:42.880Z,11.49
2023-03-27T01:21:17.950Z,11.49
2023-03-27T01:22:38.010Z,11.52
2023-03-27T01:24:08.310Z,11.43
2023-03-27T01:25:18.860Z,11.41
2023-03-27T01:26:35.954Z,11.41
2023-03-27T01:28:22.941Z,11.40
2023-03-27T01:29:30.438Z,11.41
2023-03-27T01:30:53.628Z,11.39
2023-03-27T01:32:05.268Z,11.43
2023-03-27T01:33:57.960Z,11.46
2023-03-27T01:35:08.630Z,11.45
2023-03-27T01:36:10.124Z,11.45
2023-03-27T01:37:53.115Z,11.46
2023-03-27T01:39:27.393Z,11.48
2023-03-27T01:40:39.179Z,11.52
2023-03-27T01:42:05.135Z,11.51
2023-03-27T01:43:18.227Z,11.53
2023-03-27T01:44:26.893Z,11.53
2023-03-27T01:45:53.217Z,11.57
2023-03-27T01:47:02.029Z,11.62
2023-03-27T01:48:03.554Z,11.73
2023-03-27T01:49:10.907Z,11.78
2023-03-27T01:50:24.716Z,11.87
2023-03-27T01:51:36.135Z,11.94
2023-03-27T01:52:42.081Z,12.00
2023-03-27T01:53:52.256Z,12.04
2023-03-27T01:54:58.414Z,12.09
2023-03-27T01:56:06.324Z,12.14
2023-03-27T01:57:17.674Z,12.20
2023-03-27T01:58:23.361Z,12.24
2023-03-27T01:59:29.161Z,12.25
2023-03-27T02:00:50.860Z,12.27
2023-03-27T02:02:00.854Z,12.28
2023-03-27T02:03:19.907Z,12.10
2023-03-27T02:04:28.919Z,11.96
2023-03-27T02:05:36.614Z,11.94
2023-03-27T02:06:44.552Z,11.93
2023-03-27T02:07:57.427Z,11.79
2023-03-27T02:09:05.213Z,11.68
2023-03-27T02:10:18.019Z,11.68
2023-03-27T02:11:22.933Z,11.69
2023-03-27T02:12:30.970Z,11.61
2023-03-27T02:13:40.874Z,11.50
2023-03-27T02:14:49.366Z,11.49
2023-03-27T02:15:52.311Z,11.43
2023-03-27T02:17:00.775Z,11.39
2023-03-27T02:18:10.045Z,11.40
2023-03-27T02:19:34.734Z,11.43
2023-03-27T02:20:38.711Z,11.40
2023-03-27T02:21:40.388Z,11.44
2023-03-27T02:22:43.816Z,11.45
2023-03-27T02:23:45.590Z,11.42
2023-03-27T02:24:49.039Z,11.45
2023-03-27T02:25:51.863Z,11.43
2023-03-27T02:27:09.240Z,11.44
2023-03-27T02:28:40.741Z,11.48
2023-03-27T02:29:58.940Z,11.52
2023-03-27T02:31:32.584Z,11.62
2023-03-27T02:32:47.938Z,11.64
2023-03-27T02:34:12.013Z,11.65
2023-03-27T02:35:29.513Z,11.67
2023-03-27T02:37:05.142Z,11.68
2023-03-27T02:38:20.481Z,11.64
2023-03-27T02:39:35.260Z,11.63
2023-03-27T02:41:04.538Z,11.61
2023-03-27T02:42:16.118Z,11.59
2023-03-27T02:43:37.881Z,11.61
2023-03-27T02:45:00.034Z,11.61
2023-03-27T02:46:35.967Z,11.62
2023-03-27T02:47:47.728Z,11.64
2023-03-27T02:48:57.105Z,11.66
2023-03-27T02:50:06.176Z,11.73
2023-03-27T02:51:25.552Z,11.76
2023-03-27T02:52:34.218Z,11.78
2023-03-27T02:53:42.845Z,11.80
2023-03-27T02:54:50.856Z,11.85
2023-03-27T02:55:57.239Z,11.88
2023-03-27T02:57:05.252Z,11.90
2023-03-27T02:58:12.101Z,11.87
2023-03-27T02:59:22.515Z,11.89
2023-03-27T03:00:28.069Z,11.88
2023-03-27T03:01:32.562Z,11.86
2023-03-27T03:02:34.662Z,11.87
2023-03-27T03:03:42.642Z,11.85
2023-03-27T03:04:50.461Z,11.84
2023-03-27T03:05:52.119Z,11.80
2023-03-27T03:06:54.228Z,11.82
2023-03-27T03:07:58.165Z,11.83
2023-03-27T03:09:03.134Z,11.77
2023-03-27T03:10:09.667Z,11.78
2023-03-27T03:11:14.336Z,11.83
2023-03-27T03:12:16.152Z,11.84
2023-03-27T03:13:18.022Z,11.80
2023-03-27T03:14:24.562Z,11.80
2023-03-27T03:15:26.098Z,11.82
2023-03-27T03:16:29.240Z,11.81
2023-03-27T03:17:30.959Z,11.82
2023-03-27T03:18:32.537Z,11.81
2023-03-27T03:19:34.115Z,11.81
2023-03-27T03:20:35.724Z,11.84
2023-03-27T03:21:37.661Z,11.80
2023-03-27T03:22:40.022Z,11.81
2023-03-27T03:23:41.594Z,11.82
2023-03-27T03:25:00.168Z,11.80
2023-03-27T03:26:03.091Z,11.82
2023-03-27T03:27:05.734Z,11.85
2023-03-27T03:28:09.792Z,11.85
2023-03-27T03:29:12.955Z,11.87
2023-03-27T03:30:17.018Z,11.86
2023-03-27T03:31:19.290Z,11.81
2023-03-27T03:32:21.035Z,11.81
2023-03-27T03:33:22.687Z,11.82
2023-03-27T03:34:28.642Z,11.83
2023-03-27T03:35:30.353Z,11.86
2023-03-27T03:36:33.233Z,11.81
2023-03-27T03:37:39.457Z,11.74
2023-03-27T03:38:46.170Z,11.74
2023-03-27T03:39:48.340Z,11.71
2023-03-27T03:40:52.126Z,11.75
2023-03-27T03:41:54.208Z,11.76
2023-03-27T03:42:55.936Z,11.79
2023-03-27T03:43:57.446Z,11.76
2023-03-27T03:44:58.953Z,11.75
2023-03-27T03:46:00.834Z,11.74
2023-03-27T03:47:02.572Z,11.75
2023-03-27T03:48:04.201Z,11.77
2023-03-27T03:49:06.608Z,11.77
2023-03-27T03:50:08.617Z,11.80
2023-03-27T03:51:10.215Z,11.81
2023-03-27T03:52:11.853Z,11.77
2023-03-27T03:53:15.427Z,11.75
2023-03-27T03:54:17.009Z,11.74
2023-03-27T03:55:18.567Z,11.72
2023-03-27T03:56:20.210Z,11.68
2023-03-27T03:57:21.721Z,11.67
2023-03-27T03:58:34.761Z,11.65
2023-03-27T03:59:36.818Z,11.61
2023-03-27T04:00:39.919Z,11.61
2023-03-27T04:01:41.630Z,11.62
2023-03-27T04:02:43.696Z,11.64
2023-03-27T04:03:45.536Z,11.60
2023-03-27T04:04:47.241Z,11.58
2023-03-27T04:05:48.932Z,11.53
2023-03-27T04:06:51.076Z,11.53
2023-03-27T04:07:52.728Z,11.51
2023-03-27T04:08:54.284Z,11.48
2023-03-27T04:09:55.900Z,11.48
2023-03-27T04:10:57.678Z,11.48
2023-03-27T04:11:59.694Z,11.49
2023-03-27T04:13:01.612Z,11.47
2023-03-27T04:14:03.204Z,11.43
2023-03-27T04:15:05.506Z,11.44
2023-03-27T04:16:08.219Z,11.44
2023-03-27T04:17:10.228Z,11.46
2023-03-27T04:18:11.860Z,11.46
2023-03-27T04:19:13.597Z,11.47
2023-03-27T04:20:15.642Z,11.48
2023-03-27T04:21:17.659Z,11.51
2023-03-27T04:22:19.251Z,11.51
2023-03-27T04:23:20.767Z,11.52
2023-03-27T04:24:24.079Z,11.54
2023-03-27T04:25:26.416Z,11.58
2023-03-27T04:26:29.714Z,11.60
2023-03-27T04:27:31.652Z,11.62
2023-03-27T04:28:34.258Z,11.61
2023-03-27T04:29:36.282Z,11.64
2023-03-27T04:30:38.772Z,11.64
2023-03-27T04:31:40.449Z,11.68
2023-03-27T04:32:42.153Z,11.70
2023-03-27T04:33:46.436Z,11.72
2023-03-27T04:34:50.344Z,11.72
2023-03-27T04:36:05.367Z,11.71
2023-03-27T04:37:08.564Z,11.71
2023-03-27T04:38:10.249Z,11.70
2023-03-27T04:39:11.987Z,11.76
2023-03-27T04:40:16.021Z,11.77
2023-03-27T04:41:17.984Z,11.82
2023-03-27T04:42:23.473Z,11.85
2023-03-27T04:43:26.207Z,11.91
2023-03-27T04:44:27.778Z,11.99
2023-03-27T04:45:29.395Z,11.99
2023-03-27T04:46:31.327Z,12.01
2023-03-27T04:47:37.787Z,12.10
2023-03-27T04:48:39.565Z,12.18
2023-03-27T04:49:43.051Z,12.22
2023-03-27T04:50:49.290Z,12.27
2023-03-27T04:51:51.272Z,12.30
2023-03-27T04:52:58.554Z,12.38
2023-03-27T04:54:00.143Z,12.45
2023-03-27T04:55:02.154Z,12.36
2023-03-27T04:56:05.514Z,12.31
2023-03-27T04:57:07.617Z,12.29
2023-03-27T04:58:09.224Z,12.17
2023-03-27T04:59:10.750Z,12.23
2023-03-27T05:00:19.793Z,12.32
2023-03-27T05:01:22.797Z,12.37
2023-03-27T05:02:26.604Z,12.37
2023-03-27T05:03:28.562Z,12.44
2023-03-27T05:04:32.029Z,12.45
2023-03-27T05:05:34.766Z,12.52
2023-03-27T05:06:37.443Z,12.60
2023-03-27T05:07:40.258Z,12.63
2023-03-27T05:08:41.807Z,12.52
2023-03-27T05:09:43.389Z,12.41
2023-03-27T05:10:46.495Z,12.29
2023-03-27T05:11:50.227Z,12.14
2023-03-27T05:12:54.425Z,12.04
2023-03-27T05:13:56.824Z,12.00
2023-03-27T05:14:59.300Z,12.11
2023-03-27T05:16:01.872Z,12.26
2023-03-27T05:17:03.551Z,12.39
2023-03-27T05:18:07.209Z,12.48
2023-03-27T05:19:09.391Z,12.51
2023-03-27T05:20:14.712Z,12.47
2023-03-27T05:21:16.791Z,12.33
2023-03-27T05:22:18.346Z,12.23
2023-03-27T05:23:19.918Z,12.23
2023-03-27T05:24:21.493Z,12.17
2023-03-27T05:25:23.488Z,12.09
2023-03-27T05:26:25.043Z,12.15
2023-03-27T05:27:26.547Z,12.18
2023-03-27T05:28:29.349Z,12.16
2023-03-27T05:29:31.057Z,12.17
2023-03-27T05:30:48.805Z,12.22
2023-03-27T05:31:50.560Z,12.17
2023-03-27T05:32:53.592Z,12.20
2023-03-27T05:33:55.359Z,12.19
2023-03-27T05:34:56.882Z,12.18
2023-03-27T05:35:58.698Z,12.23
2023-03-27T05:37:05.749Z,12.26
2023-03-27T05:38:08.264Z,12.33
2023-03-27T05:39:09.815Z,12.38
2023-03-27T05:40:11.680Z,12.42
2023-03-27T05:41:15.878Z,12.41
2023-03-27T05:42:17.492Z,12.39
2023-03-27T05:43:20.471Z,12.47
2023-03-27T05:44:23.568Z,12.56
2023-03-27T05:45:26.134Z,12.60
2023-03-27T05:46:27.798Z,12.64
2023-03-27T05:47:29.371Z,12.57
2023-03-27T05:48:31.016Z,12.54
2023-03-27T05:49:34.169Z,12.52
2023-03-27T05:50:35.992Z,12.52
2023-03-27T05:51:37.523Z,12.54
2023-03-27T05:52:39.109Z,12.56
2023-03-27T05:53:40.708Z,12.50
2023-03-27T05:54:42.267Z,12.55
2023-03-27T05:55:44.347Z,12.54
2023-03-27T05:56:46.611Z,12.61
2023-03-27T05:57:48.209Z,12.53
2023-03-27T05:58:49.744Z,12.31
2023-03-27T05:59:51.300Z,12.32
2023-03-27T06:00:52.892Z,12.22
2023-03-27T06:01:54.541Z,12.32
2023-03-27T06:03:02.493Z,12.39
2023-03-27T06:04:04.510Z,12.45
2023-03-27T06:05:10.630Z,12.36
2023-03-27T06:06:12.827Z,12.29
2023-03-27T06:07:14.968Z,12.42
2023-03-27T06:08:17.005Z,12.51
2023-03-27T06:09:18.577Z,12.58
2023-03-27T06:10:23.169Z,12.63
2023-03-27T06:11:25.116Z,12.60
2023-03-27T06:12:26.674Z,12.53
2023-03-27T06:13:28.609Z,12.53
2023-03-27T06:14:30.429Z,12.57
2023-03-27T06:15:33.684Z,12.59
2023-03-27T06:16:35.559Z,12.61
2023-03-27T06:17:40.225Z,12.66
2023-03-27T06:18:41.850Z,12.68
2023-03-27T06:19:43.442Z,12.73
2023-03-27T06:20:44.987Z,12.78
2023-03-27T06:21:46.947Z,12.82
2023-03-27T06:22:55.616Z,12.85
2023-03-27T06:23:57.230Z,12.89
2023-03-27T06:24:58.763Z,12.94
2023-03-27T06:26:00.375Z,12.98
2023-03-27T06:27:02.937Z,13.00
2023-03-27T06:28:08.114Z,13.06
2023-03-27T06:29:09.657Z,13.08
2023-03-27T06:30:13.553Z,13.14
2023-03-27T06:31:15.210Z,13.20
2023-03-27T06:32:17.059Z,13.26
2023-03-27T06:33:18.605Z,13.24
2023-03-27T06:34:20.202Z,13.24
2023-03-27T06:35:21.940Z,13.29
2023-03-27T06:36:24.991Z,13.19
2023-03-27T06:37:26.565Z,13.15
2023-03-27T06:38:32.134Z,13.13
2023-03-27T06:39:33.801Z,13.11
2023-03-27T06:40:35.518Z,13.09
2023-03-27T06:41:37.081Z,13.07
2023-03-27T06:42:38.586Z,13.05
2023-03-27T06:43:40.189Z,13.05
2023-03-27T06:44:41.678Z,13.07
2023-03-27T06:45:46.194Z,13.11
2023-03-27T06:46:47.976Z,13.14
2023-03-27T06:47:54.818Z,13.16
2023-03-27T06:48:57.156Z,13.17
2023-03-27T06:49:58.699Z,13.18
2023-03-27T06:51:00.410Z,13.18
2023-03-27T06:52:02.924Z,13.17
2023-03-27T06:53:10.056Z,13.16
2023-03-27T06:54:17.474Z,13.19
2023-03-27T06:55:20.392Z,13.20
2023-03-27T06:56:21.943Z,13.22
2023-03-27T06:57:23.494Z,13.26
2023-03-27T06:58:25.233Z,13.24
2023-03-27T06:59:26.863Z,13.22
2023-03-27T07:00:31.597Z,13.24
2023-03-27T07:01:33.457Z,13.23
2023-03-27T07:02:35.083Z,13.18
2023-03-27T07:03:36.653Z,13.24
2023-03-27T07:04:38.420Z,13.25
2023-03-27T07:05:40.898Z,13.24
2023-03-27T07:06:43.188Z,13.22
2023-03-27T07:07:45.153Z,13.22
2023-03-27T07:08:48.918Z,13.37
2023-03-27T07:09:50.873Z,13.48
2023-03-27T07:11:07.962Z,13.54
2023-03-27T07:12:12.780Z,13.54
2023-03-27T07:13:15.662Z,13.51
2023-03-27T07:14:17.213Z,13.37
2023-03-27T07:15:20.375Z,13.33
2023-03-27T07:16:21.982Z,13.44
2023-03-27T07:17:25.316Z,13.54
2023-03-27T07:18:26.935Z,13.69
2023-03-27T07:19:28.562Z,13.85
2023-03-27T07:20:31.727Z,13.99
2023-03-27T07:21:33.290Z,14.00
2023-03-27T07:22:34.849Z,14.01
2023-03-27T07:23:36.794Z,13.99
2023-03-27T07:24:38.436Z,13.88
2023-03-27T07:25:40.622Z,13.88
2023-03-27T07:26:42.136Z,13.88
2023-03-27T07:27:43.722Z,13.89
2023-03-27T07:28:45.387Z,13.92
2023-03-27T07:29:47.208Z,13.90
2023-03-27T07:30:48.786Z,13.94
2023-03-27T07:32:55.194Z,14.26
2023-03-27T07:33:57.986Z,14.35
2023-03-27T07:34:59.617Z,14.37
2023-03-27T07:36:06.783Z,14.37
2023-03-27T07:37:08.450Z,14.34
2023-03-27T07:38:11.563Z,14.35
2023-03-27T07:39:14.281Z,14.34
2023-03-27T07:40:29.534Z,14.33
2023-03-27T07:41:35.031Z,14.35
2023-03-27T07:42:36.648Z,14.34
2023-03-27T07:43:38.179Z,14.34
2023-03-27T07:44:39.745Z,14.36
2023-03-27T07:45:42.094Z,14.35
2023-03-27T07:46:43.755Z,14.33
2023-03-27T07:47:46.938Z,14.26
2023-03-27T07:48:49.129Z,14.22
2023-03-27T07:49:51.042Z,14.20
2023-03-27T07:50:56.114Z,14.25
2023-03-27T07:52:00.534Z,14.22
2023-03-27T07:53:02.079Z,14.22
2023-03-27T07:54:04.514Z,14.22
2023-03-27T07:55:07.756Z,14.22
2023-03-27T07:56:10.565Z,14.25
2023-03-27T07:57:13.821Z,14.30
2023-03-27T07:58:15.565Z,14.26
2023-03-27T07:59:17.369Z,14.19
2023-03-27T08:00:19.941Z,14.19
2023-03-27T08:01:21.564Z,14.21
2023-03-27T08:02:25.027Z,14.23
2023-03-27T08:03:28.230Z,14.25
2023-03-27T08:04:30.062Z,14.25
2023-03-27T08:05:31.649Z,14.28
2023-03-27T08:06:33.345Z,14.26
2023-03-27T08:07:36.252Z,14.29
2023-03-27T08:08:37.937Z,14.29
2023-03-27T08:09:39.575Z,14.28
2023-03-27T08:10:41.578Z,14.30
2023-03-27T08:11:44.296Z,14.34
2023-03-27T08:12:45.941Z,14.37
2023-03-27T08:13:47.713Z,14.38
2023-03-27T08:14:49.292Z,14.40
2023-03-27T08:15:51.345Z,14.45
2023-03-27T08:16:54.359Z,14.47
2023-03-27T08:17:59.426Z,14.55
2023-03-27T08:19:03.077Z,14.62
2023-03-27T08:20:09.367Z,14.67
2023-03-27T08:21:11.799Z,14.78
2023-03-27T08:22:13.989Z,14.83
2023-03-27T08:23:16.402Z,14.86
2023-03-27T08:24:18.005Z,14.90
2023-03-27T08:25:22.617Z,14.94
2023-03-27T08:26:26.584Z,14.93
2023-03-27T08:27:28.149Z,14.94
2023-03-27T08:28:34.416Z,14.90
2023-03-27T08:29:35.997Z,14.90
2023-03-27T08:30:37.669Z,14.89
2023-03-27T08:31:39.500Z,14.90
2023-03-27T08:32:42.211Z,14.90
2023-03-27T08:33:43.858Z,14.81
2023-03-27T08:34:45.848Z,14.76
2023-03-27T08:35:48.808Z,14.75
2023-03-27T08:36:50.425Z,14.74
2023-03-27T08:37:52.823Z,14.72
2023-03-27T08:38:55.393Z,14.74
2023-03-27T08:39:58.985Z,14.71
2023-03-27T08:41:03.629Z,14.66
2023-03-27T08:42:08.623Z,14.66
2023-03-27T08:43:16.864Z,14.65
2023-03-27T08:44:21.359Z,14.61
2023-03-27T08:45:28.108Z,14.61
2023-03-27T08:46:37.558Z,14.63
2023-03-27T08:47:44.659Z,14.64
2023-03-27T08:48:53.957Z,14.64
2023-03-27T08:50:00.621Z,14.66
2023-03-27T08:51:06.929Z,14.67
2023-03-27T08:52:22.668Z,14.69
2023-03-27T08:54:00.315Z,14.65
2023-03-27T08:55:33.729Z,14.67
2023-03-27T08:56:37.424Z,14.68
2023-03-27T08:57:39.061Z,14.72
2023-03-27T08:58:41.738Z,14.67
2023-03-27T08:59:43.363Z,14.62
2023-03-27T09:00:47.445Z,14.62
2023-03-27T09:02:10.804Z,14.76
2023-03-27T09:03:43.595Z,14.74
2023-03-27T09:05:01.685Z,14.77
2023-03-27T09:06:11.620Z,14.77
2023-03-27T09:07:19.878Z,14.80
2023-03-27T09:08:49.672Z,14.92
2023-03-27T09:10:00.167Z,15.01
2023-03-27T09:11:52.079Z,14.93
2023-03-27T09:12:54.517Z,14.80
2023-03-27T09:13:56.582Z,14.71
2023-03-27T09:15:09.787Z,14.67
2023-03-27T09:16:19.764Z,14.72
2023-03-27T09:17:27.254Z,14.78
2023-03-27T09:18:54.265Z,14.89
2023-03-27T09:20:18.269Z,14.91
2023-03-27T09:21:35.060Z,14.90
2023-03-27T09:22:45.919Z,14.90
2023-03-27T09:23:48.777Z,14.91
2023-03-27T09:24:54.245Z,14.81
2023-03-27T09:26:01.124Z,14.72
2023-03-27T09:27:27.425Z,14.72
2023-03-27T09:28:35.838Z,14.76
2023-03-27T09:29:41.423Z,14.75
2023-03-27T09:30:43.021Z,14.71
2023-03-27T09:31:53.689Z,14.71
2023-03-27T09:33:03.627Z,14.66
2023-03-27T09:34:09.020Z,14.62
2023-03-27T09:35:20.339Z,14.62
2023-03-27T09:36:24.680Z,14.61
2023-03-27T09:37:28.139Z,14.61
2023-03-27T09:38:37.545Z,14.60
2023-03-27T09:39:44.132Z,14.62
2023-03-27T09:40:54.645Z,14.65
2023-03-27T09:42:07.426Z,14.69
2023-03-27T09:43:17.586Z,14.68
2023-03-27T09:44:34.417Z,14.70
2023-03-27T09:45:39.288Z,14.72
2023-03-27T09:46:45.819Z,14.71
2023-03-27T09:48:12.065Z,14.75
2023-03-27T09:49:16.237Z,14.81
2023-03-27T09:50:41.450Z,14.88
2023-03-27T09:51:48.757Z,14.86
2023-03-27T09:52:52.333Z,14.85
2023-03-27T09:53:58.786Z,14.92
2023-03-27T09:55:00.719Z,14.89
2023-03-27T09:56:06.305Z,14.86
2023-03-27T09:57:12.624Z,14.92
2023-03-27T09:58:41.061Z,14.88
2023-03-27T10:00:01.233Z,14.85
2023-03-27T10:01:36.129Z,14.86
2023-03-27T10:02:37.882Z,14.85
2023-03-27T10:03:49.036Z,14.84
2023-03-27T10:05:11.939Z,14.84
2023-03-27T10:06:16.556Z,14.89
2023-03-27T10:07:25.754Z,14.86
2023-03-27T10:08:40.778Z,14.82
2023-03-27T10:09:42.852Z,14.77
2023-03-27T10:10:45.937Z,14.75
2023-03-27T10:11:50.822Z,14.73
2023-03-27T10:12:58.335Z,14.72
2023-03-27T10:14:02.177Z,14.76
2023-03-27T10:15:06.952Z,14.71
2023-03-27T10:16:08.996Z,14.72
2023-03-27T10:17:33.250Z,14.71
2023-03-27T10:18:43.462Z,14.67
2023-03-27T10:19:47.237Z,14.64
2023-03-27T10:20:54.299Z,14.65
2023-03-27T10:22:00.538Z,14.66
2023-03-27T10:23:22.751Z,14.63
2023-03-27T10:24:33.451Z,14.64
2023-03-27T10:25:39.376Z,14.68
2023-03-27T10:26:41.034Z,14.68
2023-03-27T10:27:43.818Z,14.69
2023-03-27T10:28:52.641Z,14.65
2023-03-27T10:29:54.207Z,14.68
2023-03-27T10:31:24.070Z,14.70
2023-03-27T10:32:52.871Z,14.69
2023-03-27T10:33:54.429Z,14.65
2023-03-27T10:34:58.279Z,14.64
2023-03-27T10:36:00.582Z,14.63
2023-03-27T10:37:17.629Z,14.66
2023-03-27T10:38:22.550Z,14.72
2023-03-27T10:39:35.073Z,14.70
2023-03-27T10:40:39.549Z,14.73
2023-03-27T10:41:41.402Z,14.71
2023-03-27T10:42:43.155Z,14.69
2023-03-27T10:43:47.227Z,14.75
2023-03-27T10:44:49.405Z,14.72
2023-03-27T10:45:58.986Z,14.80
2023-03-27T10:47:01.000Z,14.83
2023-03-27T10:48:07.009Z,14.81
2023-03-27T10:49:32.459Z,14.87
2023-03-27T10:50:53.505Z,14.85
2023-03-27T10:52:20.387Z,14.86
2023-03-27T10:53:33.258Z,14.91
2023-03-27T10:54:51.286Z,14.91
2023-03-27T10:56:13.864Z,14.87
2023-03-27T10:57:24.278Z,14.84
2023-03-27T10:58:35.285Z,14.86
2023-03-27T10:59:57.030Z,14.83
2023-03-27T11:01:11.605Z,14.81
2023-03-27T11:02:42.146Z,14.80
2023-03-27T11:03:58.491Z,14.76
2023-03-27T11:05:08.284Z,14.75
2023-03-27T11:06:16.549Z,14.77
2023-03-27T11:07:27.262Z,14.79
2023-03-27T11:08:36.239Z,14.86
2023-03-27T11:09:47.345Z,14.93
2023-03-27T11:10:50.215Z,14.88
2023-03-27T11:11:57.758Z,14.80
2023-03-27T11:13:17.585Z,14.79
2023-03-27T11:14:38.826Z,14.78
2023-03-27T11:15:46.100Z,14.80
2023-03-27T11:16:58.710Z,14.77
2023-03-27T11:18:06.998Z,14.74
2023-03-27T11:19:11.422Z,14.71
2023-03-27T11:20:30.212Z,14.71
2023-03-27T11:21:44.129Z,14.70
2023-03-27T11:22:55.062Z,14.70
2023-03-27T11:23:58.722Z,14.74
2023-03-27T11:25:04.258Z,14.77
2023-03-27T11:26:07.578Z,14.80
2023-03-27T11:27:23.386Z,14.91
2023-03-27T11:28:43.528Z,15.06
2023-03-27T11:30:30.267Z,15.16
2023-03-27T11:31:44.245Z,15.12
2023-03-27T11:32:58.782Z,15.01
2023-03-27T11:34:32.517Z,14.94
2023-03-27T11:35:39.428Z,14.66
2023-03-27T11:36:52.034Z,14.37
2023-03-27T11:38:03.524Z,14.33
2023-03-27T11:39:23.670Z,14.20
2023-03-27T11:40:46.566Z,13.98
2023-03-27T11:41:57.820Z,13.90
2023-03-27T11:42:59.931Z,13.82
2023-03-27T11:44:01.618Z,13.81
2023-03-27T11:45:07.328Z,13.75
2023-03-27T11:46:08.968Z,13.62
2023-03-27T11:47:32.567Z,13.58
2023-03-27T11:49:15.018Z,13.42
2023-03-27T11:50:25.090Z,13.38
2023-03-27T11:51:51.214Z,13.41
2023-03-27T11:53:12.248Z,13.44
2023-03-27T11:54:41.428Z,13.41
2023-03-27T11:56:04.952Z,13.40
2023-03-27T11:57:22.136Z,13.39
2023-03-27T11:58:40.491Z,13.36
2023-03-27T11:59:48.529Z,13.21
2023-03-27T12:00:58.907Z,13.17
2023-03-27T12:02:21.381Z,13.10
2023-03-27T12:03:43.658Z,13.00
2023-03-27T12:04:52.255Z,12.94
2023-03-27T12:06:16.403Z,12.88
2023-03-27T12:07:59.365Z,12.82
2023-03-27T12:09:20.792Z,12.74
2023-03-27T12:10:29.146Z,12.68
2023-03-27T12:11:31.254Z,12.64
2023-03-27T12:12:46.612Z,12.63
2023-03-27T12:14:18.432Z,12.51
2023-03-27T12:15:42.649Z,12.42
2023-03-27T12:16:56.393Z,12.35
2023-03-27T12:18:06.947Z,12.23
2023-03-27T12:19:31.195Z,12.07
2023-03-27T12:20:43.515Z,11.95
2023-03-27T12:22:25.555Z,11.93
2023-03-27T12:24:02.359Z,11.76
2023-03-27T12:25:40.793Z,11.52
2023-03-27T12:26:48.243Z,11.39
2023-03-27T12:28:01.338Z,11.31
2023-03-27T12:29:29.048Z,11.21
2023-03-27T12:30:41.376Z,11.09
2023-03-27T12:32:14.159Z,11.05
2023-03-27T12:33:32.826Z,10.94
2023-03-27T12:34:42.904Z,10.91
2023-03-27T12:35:51.948Z,10.81
2023-03-27T12:36:53.948Z,10.77
2023-03-27T12:38:18.773Z,10.68
2023-03-27T12:39:24.506Z,10.69
2023-03-27T12:40:52.337Z,10.73
2023-03-27T12:41:53.869Z,10.78
2023-03-27T12:43:06.002Z,10.81
2023-03-27T12:44:13.364Z,10.85
2023-03-27T12:45:23.865Z,10.90
2023-03-27T12:46:26.508Z,10.89
2023-03-27T12:47:29.696Z,10.90
2023-03-27T12:48:31.324Z,10.96
2023-03-27T12:50:00.243Z,10.95
2023-03-27T12:51:12.854Z,11.00
2023-03-27T12:52:15.113Z,11.02
2023-03-27T12:53:39.989Z,11.00
2023-03-27T12:55:07.187Z,10.86
2023-03-27T12:56:17.716Z,10.71
2023-03-27T12:57:22.381Z,10.49
2023-03-27T12:58:33.891Z,10.30
2023-03-27T12:59:54.903Z,10.12
2023-03-27T13:01:03.037Z,9.94
2023-03-27T13:02:04.633Z,9.93
2023-03-27T13:03:52.756Z,9.85
2023-03-27T13:05:24.018Z,9.93
2023-03-27T13:06:43.372Z,9.76
2023-03-27T13:07:56.162Z,9.80
2023-03-27T13:09:09.671Z,9.79
2023-03-27T13:10:23.532Z,9.81
2023-03-27T13:11:38.368Z,9.89
2023-03-27T13:13:04.552Z,10.02
2023-03-27T13:14:11.877Z,10.04
2023-03-27T13:15:31.730Z,10.00
2023-03-27T13:17:11.549Z,9.87
2023-03-27T13:18:38.269Z,9.81
2023-03-27T13:19:52.115Z,9.78
2023-03-27T13:21:08.693Z,9.80
2023-03-27T13:22:47.631Z,9.84
2023-03-27T13:23:59.368Z,9.84
2023-03-27T13:25:48.679Z,9.67
2023-03-27T13:27:01.550Z,9.57
2023-03-27T13:28:37.233Z,9.55
2023-03-27T13:29:39.278Z,9.57
2023-03-27T13:30:50.311Z,9.59
2023-03-27T13:32:31.152Z,9.58
2023-03-27T13:33:35.810Z,9.59
2023-03-27T13:34:41.994Z,9.59
2023-03-27T13:36:32.292Z,9.61
2023-03-27T13:37:36.476Z,9.67
2023-03-27T13:38:53.357Z,9.64
2023-03-27T13:40:10.212Z,9.69
2023-03-27T13:41:47.767Z,9.75
2023-03-27T13:43:03.732Z,9.85
2023-03-27T13:44:10.762Z,9.89
2023-03-27T13:45:35.847Z,9.92
2023-03-27T13:46:39.397Z,9.93
2023-03-27T13:47:46.879Z,9.97
2023-03-27T13:49:30.711Z,10.01
2023-03-27T13:50:52.156Z,10.02
2023-03-27T13:52:14.581Z,10.03
2023-03-27T13:54:06.766Z,10.00
2023-03-27T13:55:28.018Z,10.04
2023-03-27T13:56:44.892Z,10.04
2023-03-27T13:58:14.070Z,10.04
2023-03-27T13:59:33.560Z,10.06
2023-03-27T14:00:50.352Z,10.10
2023-03-27T14:02:17.037Z,10.17
2023-03-27T14:03:18.652Z,10.18
2023-03-27T14:04:47.570Z,10.15
2023-03-27T14:06:03.143Z,10.15
2023-03-27T14:07:36.693Z,10.12
2023-03-27T14:08:44.292Z,10.09
2023-03-27T14:10:10.384Z,10.13
2023-03-27T14:11:23.753Z,10.14
2023-03-27T14:13:09.774Z,10.18
2023-03-27T14:14:25.857Z,10.24
2023-03-27T14:15:48.847Z,10.33
2023-03-27T14:17:11.914Z,10.45
2023-03-27T14:18:47.232Z,10.57
2023-03-27T14:20:23.094Z,10.57
2023-03-27T14:21:36.142Z,10.64
2023-03-27T14:22:56.827Z,10.73
2023-03-27T14:24:19.662Z,10.69
2023-03-27T14:25:25.994Z,10.69
2023-03-27T14:26:30.434Z,10.75
2023-03-27T14:27:34.560Z,10.87
2023-03-27T14:28:58.789Z,10.99
2023-03-27T14:30:07.236Z,10.96
2023-03-27T14:31:11.334Z,10.89
2023-03-27T14:32:17.467Z,10.89
2023-03-27T14:33:20.073Z,10.82
2023-03-27T14:34:25.529Z,10.74
2023-03-27T14:35:41.155Z,10.67
2023-03-27T14:36:46.021Z,10.80
2023-03-27T14:37:55.805Z,10.84
2023-03-27T14:39:02.277Z,10.80
2023-03-27T14:40:20.576Z,10.79
2023-03-27T14:41:26.880Z,10.76
2023-03-27T14:42:32.818Z,10.75
2023-03-27T14:43:34.908Z,10.70
2023-03-27T14:44:36.432Z,10.62
2023-03-27T14:45:40.786Z,10.54
2023-03-27T14:46:48.315Z,10.49
2023-03-27T14:47:53.983Z,10.55